Time;durP1;ratioP1;P1;durP2;ratioP2;P2;SDS_P1;SDS_P2;PMS_P1;PMS_P2;Temp;Humidity;BMP_temperature;BMP_pressure;BME280_temperature;BME280_humidity;BME280_pressure;Samples;Min_cycle;Max_cycle;Signal;HPM_P1;HPM_P2
2022/02/15 00:00:03;;;;;;;3.10;1.80;;;;;;;;;;5033195;28;20033;-68
2022/02/15 00:02:28;;;;;;;3.00;1.60;;;;;;;;;;5035537;28;20029;-68
2022/02/15 00:04:53;;;;;;;2.33;1.52;;;;;;;;;;5041356;28;20386;-68
2022/02/15 00:07:19;;;;;;;2.90;1.40;;;;;;;;;;5040490;28;20478;-68
2022/02/15 00:09:44;;;;;;;3.33;2.05;;;;;;;;;;5046400;28;20025;-67
2022/02/15 00:12:09;;;;;;;2.70;1.13;;;;;;;;;;5036445;28;20111;-68
2022/02/15 00:14:34;;;;;;;4.13;1.65;;;;;;;;;;5040964;28;20033;-68
2022/02/15 00:17:00;;;;;;;3.33;1.20;;;;;;;;;;5049028;28;20385;-66
2022/02/15 00:19:25;;;;;;;2.70;1.38;;;;;;;;;;5034360;28;20037;-68
2022/02/15 00:21:50;;;;;;;2.42;1.30;;;;;;;;;;5031745;28;20044;-67
2022/02/15 00:24:15;;;;;;;2.92;1.33;;;;;;;;;;5060458;28;20040;-68
2022/02/15 00:26:40;;;;;;;3.45;1.52;;;;;;;;;;5035394;28;20104;-67
2022/02/15 00:29:05;;;;;;;3.55;1.42;;;;;;;;;;5046832;28;20055;-67
2022/02/15 00:31:31;;;;;;;5.32;1.45;;;;;;;;;;5045800;28;20029;-68
2022/02/15 00:33:56;;;;;;;2.53;1.20;;;;;;;;;;5040481;28;20021;-67
2022/02/15 00:36:22;;;;;;;3.42;1.20;;;;;;;;;;5041479;28;20075;-67
2022/02/15 00:38:47;;;;;;;1.75;1.10;;;;;;;;;;5034054;28;20452;-67
2022/02/15 00:41:13;;;;;;;2.80;1.73;;;;;;;;;;5041765;28;20104;-67
2022/02/15 00:43:38;;;;;;;3.25;1.35;;;;;;;;;;5036642;28;20025;-67
2022/02/15 00:46:04;;;;;;;3.53;1.33;;;;;;;;;;5045486;28;20501;-67
2022/02/15 00:48:29;;;;;;;2.53;1.52;;;;;;;;;;5034840;28;20454;-68
2022/02/15 00:50:54;;;;;;;2.50;1.27;;;;;;;;;;5040431;28;20029;-67
2022/02/15 00:53:20;;;;;;;3.95;1.60;;;;;;;;;;5032506;28;20126;-67
2022/02/15 00:55:45;;;;;;;2.97;1.40;;;;;;;;;;5026873;28;20339;-67
2022/02/15 00:58:10;;;;;;;2.28;1.38;;;;;;;;;;5034232;28;20025;-67
2022/02/15 01:00:35;;;;;;;2.70;1.58;;;;;;;;;;5041348;28;20099;-67
2022/02/15 01:03:00;;;;;;;1.75;1.38;;;;;;;;;;5034958;28;20478;-67
2022/02/15 01:05:26;;;;;;;2.35;1.40;;;;;;;;;;5050103;28;20029;-67
2022/02/15 01:07:51;;;;;;;2.08;1.67;;;;;;;;;;5039273;28;20017;-68
2022/02/15 01:10:20;;;;;;;2.42;1.15;;;;;;;;;;5021380;28;20529;-67
2022/02/15 01:12:45;;;;;;;1.55;1.23;;;;;;;;;;5045986;28;20032;-67
2022/02/15 01:15:10;;;;;;;2.60;1.30;;;;;;;;;;5033084;28;20022;-67
2022/02/15 01:17:35;;;;;;;2.30;1.17;;;;;;;;;;5042209;28;20021;-67
2022/02/15 01:20:01;;;;;;;4.05;1.35;;;;;;;;;;5038939;28;20032;-67
2022/02/15 01:22:26;;;;;;;1.88;1.42;;;;;;;;;;5029959;28;20033;-67
2022/02/15 01:24:51;;;;;;;3.17;1.25;;;;;;;;;;5023714;28;20033;-67
2022/02/15 01:27:16;;;;;;;3.08;1.60;;;;;;;;;;5033335;28;20045;-67
2022/02/15 01:29:41;;;;;;;3.53;1.42;;;;;;;;;;5036795;28;20026;-67
2022/02/15 01:32:07;;;;;;;2.63;1.30;;;;;;;;;;5033028;28;20014;-67
2022/02/15 01:34:33;;;;;;;3.45;1.50;;;;;;;;;;5042065;28;20527;-66
2022/02/15 01:36:58;;;;;;;3.35;1.63;;;;;;;;;;5041707;28;20037;-67
2022/02/15 01:39:23;;;;;;;1.80;1.15;;;;;;;;;;5034242;28;20022;-67
2022/02/15 01:41:48;;;;;;;2.90;1.58;;;;;;;;;;5039146;28;20041;-66
2022/02/15 01:44:16;;;;;;;2.33;1.30;;;;;;;;;;5039587;28;20103;-67
2022/02/15 01:46:41;;;;;;;3.60;1.17;;;;;;;;;;5033466;28;20053;-67
2022/02/15 01:49:06;;;;;;;4.07;1.38;;;;;;;;;;5035190;28;20041;-66
2022/02/15 01:51:32;;;;;;;3.05;1.60;;;;;;;;;;5029496;28;20071;-68
2022/02/15 01:53:57;;;;;;;2.33;1.33;;;;;;;;;;5031690;28;20048;-67
2022/02/15 01:56:23;;;;;;;3.35;1.50;;;;;;;;;;5003651;28;1056291;-68
2022/02/15 01:58:48;;;;;;;2.72;1.50;;;;;;;;;;5046935;28;20033;-67
2022/02/15 02:01:13;;;;;;;2.88;1.23;;;;;;;;;;5033494;28;20473;-67
2022/02/15 02:03:38;;;;;;;3.63;1.65;;;;;;;;;;5032941;28;20423;-68
2022/02/15 02:06:04;;;;;;;3.03;1.27;;;;;;;;;;5036298;28;20056;-68
2022/02/15 02:08:31;;;;;;;2.95;1.70;;;;;;;;;;5044123;28;20013;-66
2022/02/15 02:10:58;;;;;;;2.60;1.65;;;;;;;;;;5036515;28;20026;-67
2022/02/15 02:13:23;;;;;;;2.60;1.67;;;;;;;;;;5034741;28;20509;-67
2022/02/15 02:15:48;;;;;;;6.00;1.77;;;;;;;;;;5034477;28;20037;-67
2022/02/15 02:18:14;;;;;;;3.58;1.30;;;;;;;;;;5045744;28;20052;-67
2022/02/15 02:20:40;;;;;;;2.00;1.20;;;;;;;;;;5049864;28;20043;-67
2022/02/15 02:23:08;;;;;;;2.72;1.40;;;;;;;;;;5030884;28;20490;-66
2022/02/15 02:25:33;;;;;;;3.72;1.75;;;;;;;;;;5041070;28;20029;-68
2022/02/15 02:27:59;;;;;;;2.97;1.65;;;;;;;;;;5041172;28;20020;-67
2022/02/15 02:30:24;;;;;;;10.10;1.70;;;;;;;;;;5043195;28;20216;-68
2022/02/15 02:32:50;;;;;;;2.38;1.63;;;;;;;;;;5037213;28;20029;-68
2022/02/15 02:35:15;;;;;;;3.63;1.50;;;;;;;;;;5034758;28;20030;-68
2022/02/15 02:37:40;;;;;;;3.10;1.65;;;;;;;;;;5033969;28;20116;-68
2022/02/15 02:40:07;;;;;;;2.25;1.70;;;;;;;;;;5038340;28;20022;-68
2022/02/15 02:42:34;;;;;;;2.70;2.03;;;;;;;;;;5035763;28;20393;-67
2022/02/15 02:45:00;;;;;;;2.75;1.90;;;;;;;;;;5038518;28;20115;-68
2022/02/15 02:47:26;;;;;;;3.47;1.45;;;;;;;;;;5048099;28;20029;-68
2022/02/15 02:49:51;;;;;;;2.85;1.58;;;;;;;;;;5052515;28;20071;-68
2022/02/15 02:52:17;;;;;;;4.38;2.63;;;;;;;;;;5036172;28;20041;-67
2022/02/15 02:54:42;;;;;;;6.40;2.60;;;;;;;;;;5027655;28;20049;-67
2022/02/15 02:57:07;;;;;;;4.78;2.30;;;;;;;;;;5041447;28;20017;-65
2022/02/15 02:59:33;;;;;;;4.03;1.92;;;;;;;;;;5042764;28;20017;-66
2022/02/15 03:01:59;;;;;;;3.90;2.05;;;;;;;;;;5037739;28;20033;-67
2022/02/15 03:04:24;;;;;;;3.33;2.33;;;;;;;;;;5036579;28;20814;-68
2022/02/15 03:06:49;;;;;;;4.35;2.33;;;;;;;;;;5034754;28;20389;-68
2022/02/15 03:09:15;;;;;;;3.90;2.08;;;;;;;;;;5029064;28;20026;-68
2022/02/15 03:11:40;;;;;;;4.80;2.33;;;;;;;;;;5035206;28;20029;-66
2022/02/15 03:14:06;;;;;;;3.72;2.55;;;;;;;;;;5019077;28;20022;-67
2022/02/15 03:16:31;;;;;;;3.58;2.25;;;;;;;;;;5032408;28;20124;-67
2022/02/15 03:18:56;;;;;;;4.10;2.35;;;;;;;;;;5036172;28;20112;-67
2022/02/15 03:21:22;;;;;;;3.55;2.38;;;;;;;;;;5030555;28;20393;-67
2022/02/15 03:23:47;;;;;;;5.32;2.60;;;;;;;;;;5015227;28;20105;-67
2022/02/15 03:26:12;;;;;;;3.33;2.05;;;;;;;;;;5048737;28;20435;-67
2022/02/15 03:28:37;;;;;;;6.22;2.30;;;;;;;;;;5040115;28;20021;-67
2022/02/15 03:31:03;;;;;;;4.35;2.10;;;;;;;;;;5039833;28;20084;-67
2022/02/15 03:33:29;;;;;;;4.72;2.17;;;;;;;;;;5033759;28;20025;-67
2022/02/15 03:35:54;;;;;;;3.63;1.83;;;;;;;;;;5033058;28;20034;-67
2022/02/15 03:38:19;;;;;;;4.63;2.20;;;;;;;;;;5032318;28;20033;-67
2022/02/15 03:43:28;;;;;;;3.55;2.28;;;;;;;;;;5043261;28;20503;-68
2022/02/15 03:45:53;;;;;;;4.35;2.03;;;;;;;;;;5039297;28;20060;-68
2022/02/15 03:48:18;;;;;;;3.28;2.22;;;;;;;;;;5031147;28;20017;-68
2022/02/15 03:50:43;;;;;;;2.75;1.90;;;;;;;;;;5033254;28;20067;-68
2022/02/15 03:53:09;;;;;;;2.70;1.23;;;;;;;;;;5024530;28;20545;-68
2022/02/15 03:55:34;;;;;;;2.83;1.80;;;;;;;;;;5028086;28;20502;-68
2022/02/15 03:57:59;;;;;;;3.65;1.98;;;;;;;;;;5024361;28;20040;-68
2022/02/15 04:00:25;;;;;;;3.88;1.90;;;;;;;;;;5045743;28;20025;-68
2022/02/15 04:02:50;;;;;;;4.43;1.58;;;;;;;;;;5036584;28;20167;-68
2022/02/15 04:05:15;;;;;;;5.15;1.88;;;;;;;;;;5035935;28;20394;-68
2022/02/15 04:07:40;;;;;;;6.47;2.03;;;;;;;;;;5049651;28;20061;-68
2022/02/15 04:10:06;;;;;;;4.60;2.10;;;;;;;;;;5025321;28;20115;-68
2022/02/15 04:12:31;;;;;;;3.65;1.90;;;;;;;;;;5030359;28;20375;-68
2022/02/15 04:14:56;;;;;;;2.67;1.23;;;;;;;;;;5040201;28;20069;-68
2022/02/15 04:17:22;;;;;;;2.55;1.70;;;;;;;;;;5039532;28;20120;-67
2022/02/15 04:19:47;;;;;;;3.92;1.60;;;;;;;;;;5034833;28;20565;-67
2022/02/15 04:22:12;;;;;;;2.15;1.20;;;;;;;;;;5026306;28;20582;-67
2022/02/15 04:24:38;;;;;;;3.85;1.77;;;;;;;;;;5031799;28;20029;-67
2022/02/15 04:27:03;;;;;;;2.40;1.33;;;;;;;;;;5035313;28;20496;-67
2022/02/15 04:29:28;;;;;;;2.67;1.55;;;;;;;;;;5038375;28;20492;-67
2022/02/15 04:31:54;;;;;;;2.35;1.40;;;;;;;;;;5033880;28;20080;-67
2022/02/15 04:34:19;;;;;;;3.17;1.30;;;;;;;;;;5043243;28;20064;-67
2022/02/15 04:36:44;;;;;;;3.85;1.90;;;;;;;;;;5033382;28;20117;-67
2022/02/15 04:39:12;;;;;;;2.63;1.25;;;;;;;;;;5037818;28;20025;-67
2022/02/15 04:41:38;;;;;;;3.65;1.67;;;;;;;;;;5019158;28;20037;-68
2022/02/15 04:44:03;;;;;;;3.70;1.92;;;;;;;;;;5034653;28;20037;-67
2022/02/15 04:46:28;;;;;;;2.83;1.80;;;;;;;;;;5044685;28;20036;-68
2022/02/15 04:48:53;;;;;;;2.70;1.60;;;;;;;;;;5051243;28;20025;-66
2022/02/15 04:51:19;;;;;;;5.20;1.67;;;;;;;;;;5047951;28;20021;-66
2022/02/15 04:53:44;;;;;;;2.50;1.55;;;;;;;;;;5030228;28;20096;-68
2022/02/15 04:56:09;;;;;;;2.80;1.52;;;;;;;;;;5034617;28;20073;-67
2022/02/15 04:58:34;;;;;;;3.67;1.67;;;;;;;;;;5033435;28;20035;-67
2022/02/15 05:00:59;;;;;;;3.75;1.70;;;;;;;;;;5035224;28;20028;-67
2022/02/15 05:03:25;;;;;;;4.57;1.90;;;;;;;;;;5033531;28;20025;-67
2022/02/15 05:05:50;;;;;;;3.70;2.05;;;;;;;;;;5035892;28;20022;-67
2022/02/15 05:08:15;;;;;;;2.72;1.80;;;;;;;;;;5044628;28;20879;-67
2022/02/15 05:10:41;;;;;;;2.30;1.60;;;;;;;;;;5037642;28;20033;-67
2022/02/15 05:13:11;;;;;;;4.35;1.58;;;;;;;;;;5045228;28;20083;-67
2022/02/15 05:15:36;;;;;;;2.72;1.50;;;;;;;;;;5037424;28;20040;-66
2022/02/15 05:18:02;;;;;;;3.10;2.00;;;;;;;;;;5048566;28;20107;-69
2022/02/15 05:20:28;;;;;;;3.72;2.15;;;;;;;;;;5045904;28;20028;-68
2022/02/15 05:22:53;;;;;;;3.95;2.00;;;;;;;;;;5027178;28;20034;-68
2022/02/15 05:25:18;;;;;;;4.65;1.77;;;;;;;;;;5031572;28;20025;-67
2022/02/15 05:27:43;;;;;;;4.65;2.47;;;;;;;;;;5044637;28;20040;-67
2022/02/15 05:30:09;;;;;;;4.03;2.30;;;;;;;;;;5038441;28;20026;-67
2022/02/15 05:32:34;;;;;;;4.22;2.35;;;;;;;;;;5034328;28;20868;-67
2022/02/15 05:35:00;;;;;;;5.18;1.77;;;;;;;;;;5045636;28;20050;-67
2022/02/15 05:37:25;;;;;;;5.78;2.13;;;;;;;;;;5038473;28;20501;-68
2022/02/15 05:39:50;;;;;;;5.30;2.40;;;;;;;;;;5037772;28;20029;-68
2022/02/15 05:42:16;;;;;;;4.93;2.25;;;;;;;;;;5038858;28;20042;-67
2022/02/15 05:44:41;;;;;;;5.25;2.50;;;;;;;;;;5034906;28;20036;-68
2022/02/15 05:47:06;;;;;;;3.53;2.30;;;;;;;;;;5040839;28;20024;-68
2022/02/15 05:50:49;;;;;;;6.78;3.47;;;;;;;;;;5053573;28;20473;-68
2022/02/15 05:52:16;;;;;;;6.20;2.10;;;;;;;;;;5031777;28;20092;-68
2022/02/15 05:54:42;;;;;;;5.60;2.70;;;;;;;;;;5029752;28;20049;-68
2022/02/15 05:57:07;;;;;;;6.03;2.83;;;;;;;;;;5043290;28;20104;-68
2022/02/15 05:59:32;;;;;;;6.32;3.22;;;;;;;;;;5017400;28;20017;-69
2022/02/15 06:01:57;;;;;;;6.63;3.28;;;;;;;;;;5043448;28;20021;-67
2022/02/15 06:04:22;;;;;;;5.70;2.72;;;;;;;;;;5033568;28;20013;-68
2022/02/15 06:06:47;;;;;;;4.85;2.92;;;;;;;;;;5034846;28;20577;-68
2022/02/15 06:09:13;;;;;;;5.60;2.45;;;;;;;;;;5026740;28;20022;-68
2022/02/15 06:11:39;;;;;;;3.22;2.58;;;;;;;;;;5014724;28;20025;-67
2022/02/15 06:14:04;;;;;;;7.35;3.40;;;;;;;;;;5033216;28;20025;-68
2022/02/15 06:16:29;;;;;;;4.18;2.92;;;;;;;;;;5036387;28;20033;-67
2022/02/15 06:18:55;;;;;;;3.80;2.40;;;;;;;;;;5032148;28;20042;-67
2022/02/15 06:21:20;;;;;;;4.93;2.92;;;;;;;;;;5031437;28;20030;-67
2022/02/15 06:23:46;;;;;;;6.10;2.65;;;;;;;;;;5013993;28;20038;-67
2022/02/15 06:26:11;;;;;;;4.20;2.42;;;;;;;;;;5028950;28;20029;-67
2022/02/15 06:28:36;;;;;;;3.05;2.35;;;;;;;;;;5039754;28;20122;-67
2022/02/15 06:31:02;;;;;;;4.57;2.58;;;;;;;;;;5035620;28;20021;-68
2022/02/15 06:33:27;;;;;;;3.72;2.88;;;;;;;;;;5032886;28;20028;-67
2022/02/15 06:35:52;;;;;;;4.63;3.40;;;;;;;;;;5039339;28;20390;-67
2022/02/15 06:38:17;;;;;;;6.57;3.20;;;;;;;;;;5040531;28;20009;-67
2022/02/15 06:40:43;;;;;;;4.68;2.90;;;;;;;;;;5036663;28;20086;-67
2022/02/15 06:43:10;;;;;;;4.45;2.60;;;;;;;;;;5045151;28;20108;-67
2022/02/15 06:45:35;;;;;;;4.13;2.80;;;;;;;;;;5045795;28;20039;-68
2022/02/15 06:48:00;;;;;;;4.00;2.85;;;;;;;;;;5046946;28;20018;-68
2022/02/15 06:50:25;;;;;;;4.03;2.80;;;;;;;;;;5039537;28;20029;-67
2022/02/15 06:52:56;;;;;;;4.22;3.30;;;;;;;;;;5026736;28;20548;-68
2022/02/15 06:55:21;;;;;;;3.63;2.38;;;;;;;;;;5029094;28;20041;-67
2022/02/15 06:57:46;;;;;;;5.05;2.90;;;;;;;;;;5028395;28;20563;-68
2022/02/15 07:00:12;;;;;;;5.28;2.97;;;;;;;;;;5024646;28;20115;-69
2022/02/15 07:02:37;;;;;;;4.30;2.78;;;;;;;;;;5026770;28;20033;-68
2022/02/15 07:05:03;;;;;;;4.88;2.70;;;;;;;;;;5018613;28;20060;-68
2022/02/15 07:07:28;;;;;;;5.13;2.72;;;;;;;;;;5021859;28;20436;-68
2022/02/15 07:09:53;;;;;;;4.10;2.63;;;;;;;;;;5029568;28;20057;-68
2022/02/15 07:12:18;;;;;;;2.80;2.40;;;;;;;;;;5024818;28;20070;-68
2022/02/15 07:14:44;;;;;;;6.07;2.95;;;;;;;;;;5027126;28;20033;-68
2022/02/15 07:17:09;;;;;;;3.85;2.40;;;;;;;;;;5037481;28;20074;-68
2022/02/15 07:19:34;;;;;;;5.85;2.65;;;;;;;;;;5051545;28;20135;-68
2022/02/15 07:21:59;;;;;;;4.50;2.72;;;;;;;;;;5036483;28;20043;-67
2022/02/15 07:24:25;;;;;;;4.15;2.78;;;;;;;;;;5036183;28;20032;-68
2022/02/15 07:26:50;;;;;;;3.83;2.47;;;;;;;;;;5040355;28;20039;-68
2022/02/15 07:29:16;;;;;;;6.80;3.30;;;;;;;;;;5050114;28;20024;-67
2022/02/15 07:31:41;;;;;;;6.38;3.42;;;;;;;;;;5045448;28;20028;-68
2022/02/15 07:34:06;;;;;;;5.50;3.65;;;;;;;;;;5034984;28;20033;-68
2022/02/15 07:36:31;;;;;;;4.90;3.30;;;;;;;;;;5032129;28;20032;-67
2022/02/15 07:38:56;;;;;;;6.03;3.90;;;;;;;;;;5032743;28;20465;-66
2022/02/15 07:41:22;;;;;;;7.50;3.90;;;;;;;;;;5042807;28;20132;-67
2022/02/15 07:43:47;;;;;;;5.53;4.05;;;;;;;;;;5026106;28;20029;-68
2022/02/15 07:46:12;;;;;;;7.53;4.35;;;;;;;;;;5027174;28;20486;-68
2022/02/15 07:48:37;;;;;;;4.88;3.40;;;;;;;;;;5030161;28;20031;-68
2022/02/15 07:51:03;;;;;;;3.22;2.65;;;;;;;;;;5039274;28;20393;-67
2022/02/15 07:53:28;;;;;;;6.72;2.95;;;;;;;;;;5039392;28;20078;-67
2022/02/15 07:55:53;;;;;;;3.67;2.72;;;;;;;;;;5016180;28;20054;-67
2022/02/15 07:58:18;;;;;;;3.60;2.47;;;;;;;;;;5029929;28;20022;-67
2022/02/15 08:00:44;;;;;;;5.15;2.80;;;;;;;;;;5035999;28;20275;-67
2022/02/15 08:03:10;;;;;;;5.72;2.88;;;;;;;;;;5037277;28;20481;-67
2022/02/15 08:05:38;;;;;;;7.07;3.13;;;;;;;;;;5030616;28;20498;-67
2022/02/15 08:08:03;;;;;;;4.05;2.75;;;;;;;;;;5031377;28;20375;-67
2022/02/15 08:10:28;;;;;;;3.10;2.10;;;;;;;;;;5031326;28;20029;-67
2022/02/15 08:12:57;;;;;;;6.75;3.30;;;;;;;;;;5039254;28;20031;-68
2022/02/15 08:15:23;;;;;;;4.85;2.72;;;;;;;;;;5030989;28;20025;-68
2022/02/15 08:17:49;;;;;;;7.32;2.80;;;;;;;;;;5031536;28;20026;-68
2022/02/15 08:20:14;;;;;;;7.00;3.17;;;;;;;;;;5027717;28;20025;-68
2022/02/15 08:22:39;;;;;;;5.10;2.90;;;;;;;;;;5029416;28;20025;-67
2022/02/15 08:25:05;;;;;;;4.28;2.85;;;;;;;;;;5054589;28;20033;-67
2022/02/15 08:27:30;;;;;;;4.47;2.72;;;;;;;;;;5049278;28;20031;-68
2022/02/15 08:29:55;;;;;;;3.80;2.88;;;;;;;;;;5036169;28;20037;-68
2022/02/15 08:32:21;;;;;;;3.95;2.63;;;;;;;;;;5033951;28;20021;-69
2022/02/15 08:34:46;;;;;;;5.47;2.63;;;;;;;;;;5040145;28;20053;-68
2022/02/15 08:37:11;;;;;;;4.05;2.65;;;;;;;;;;5036541;28;20115;-69
2022/02/15 08:39:36;;;;;;;3.63;2.50;;;;;;;;;;5036442;28;20500;-67
2022/02/15 08:42:04;;;;;;;6.00;2.47;;;;;;;;;;5034500;28;20368;-68
2022/02/15 08:44:34;;;;;;;4.70;3.25;;;;;;;;;;5043099;28;20536;-68
2022/02/15 08:46:59;;;;;;;6.50;3.22;;;;;;;;;;5051511;28;20482;-68
2022/02/15 08:49:24;;;;;;;4.35;2.88;;;;;;;;;;5039146;28;20104;-67
2022/02/15 08:51:50;;;;;;;5.32;2.70;;;;;;;;;;5027791;28;20026;-67
2022/02/15 08:54:15;;;;;;;6.85;2.83;;;;;;;;;;5024354;28;20052;-68
2022/02/15 08:56:40;;;;;;;5.20;2.83;;;;;;;;;;5027887;28;20061;-68
2022/02/15 08:59:05;;;;;;;3.97;3.05;;;;;;;;;;5023329;28;20032;-67
2022/02/15 09:01:33;;;;;;;5.03;2.90;;;;;;;;;;5039827;28;20402;-69
2022/02/15 09:03:58;;;;;;;5.55;3.30;;;;;;;;;;5045201;28;20021;-69
2022/02/15 09:06:23;;;;;;;8.07;3.70;;;;;;;;;;5051500;28;20016;-68
2022/02/15 09:08:48;;;;;;;4.97;2.97;;;;;;;;;;5051088;28;20397;-69
2022/02/15 09:11:13;;;;;;;4.90;2.60;;;;;;;;;;5022770;28;20504;-68
2022/02/15 09:13:39;;;;;;;3.63;3.13;;;;;;;;;;5038673;28;20482;-68
2022/02/15 09:16:04;;;;;;;5.07;3.20;;;;;;;;;;5034296;28;20037;-67
2022/02/15 09:18:29;;;;;;;3.83;2.83;;;;;;;;;;5034223;28;20434;-69
2022/02/15 09:20:54;;;;;;;5.55;4.07;;;;;;;;;;5034022;28;20038;-68
2022/02/15 09:23:20;;;;;;;5.63;3.25;;;;;;;;;;5018096;28;20076;-68
2022/02/15 09:25:45;;;;;;;5.80;3.60;;;;;;;;;;5029794;28;20037;-67
2022/02/15 09:28:10;;;;;;;4.28;2.97;;;;;;;;;;5035956;28;20029;-69
2022/02/15 09:30:35;;;;;;;3.92;3.08;;;;;;;;;;5031305;28;20121;-68
2022/02/15 09:33:01;;;;;;;5.38;2.92;;;;;;;;;;5028757;28;20036;-69
2022/02/15 09:35:26;;;;;;;3.88;2.65;;;;;;;;;;5034564;28;20410;-67
2022/02/15 09:37:51;;;;;;;5.00;2.70;;;;;;;;;;5027859;28;20478;-67
2022/02/15 09:40:16;;;;;;;3.45;2.67;;;;;;;;;;5016621;28;20034;-67
2022/02/15 09:42:41;;;;;;;4.82;2.17;;;;;;;;;;5018319;28;20026;-67
2022/02/15 09:45:08;;;;;;;3.25;2.20;;;;;;;;;;5033458;28;20392;-67
2022/02/15 09:47:34;;;;;;;4.32;2.88;;;;;;;;;;5032390;28;20034;-68
2022/02/15 09:50:01;;;;;;;4.53;2.50;;;;;;;;;;5013522;28;20026;-67
2022/02/15 09:52:27;;;;;;;4.00;2.25;;;;;;;;;;5015922;28;20036;-68
2022/02/15 09:54:55;;;;;;;4.43;2.30;;;;;;;;;;5022846;28;20127;-68
2022/02/15 09:57:20;;;;;;;3.80;2.05;;;;;;;;;;5022109;28;20032;-68
2022/02/15 09:59:47;;;;;;;3.30;2.60;;;;;;;;;;5020157;28;20033;-68
2022/02/15 10:02:27;;;;;;;2.80;2.03;;;;;;;;;;5030474;28;20037;-68
2022/02/15 10:04:56;;;;;;;3.03;1.80;;;;;;;;;;5033062;28;20029;-68
2022/02/15 10:07:22;;;;;;;3.92;1.75;;;;;;;;;;5034575;28;20096;-68
2022/02/15 10:09:48;;;;;;;3.25;2.10;;;;;;;;;;5032360;28;20053;-68
2022/02/15 10:12:16;;;;;;;8.60;3.08;;;;;;;;;;5046160;28;20458;-68
2022/02/15 10:14:42;;;;;;;4.10;2.30;;;;;;;;;;5032176;28;20469;-68
2022/02/15 10:17:09;;;;;;;3.38;2.65;;;;;;;;;;5035569;28;20112;-67
2022/02/15 10:19:34;;;;;;;3.58;2.17;;;;;;;;;;5033287;28;20098;-68
2022/02/15 10:22:00;;;;;;;4.30;1.92;;;;;;;;;;5025175;28;20025;-67
2022/02/15 10:24:26;;;;;;;4.00;2.05;;;;;;;;;;5011207;28;20437;-68
2022/02/15 10:27:04;;;;;;;2.83;1.80;;;;;;;;;;5037135;28;20021;-68
2022/02/15 10:29:32;;;;;;;2.97;1.75;;;;;;;;;;5028506;28;20030;-69
2022/02/15 10:31:58;;;;;;;3.40;1.58;;;;;;;;;;5043900;28;20033;-68
2022/02/15 10:34:24;;;;;;;3.08;1.30;;;;;;;;;;5036843;28;20536;-68
2022/02/15 10:36:53;;;;;;;1.60;0.82;;;;;;;;;;5033304;28;20120;-68
2022/02/15 10:39:18;;;;;;;3.45;1.30;;;;;;;;;;5026905;28;20446;-67
2022/02/15 10:41:43;;;;;;;1.95;1.05;;;;;;;;;;5012941;28;20070;-70
2022/02/15 10:44:11;;;;;;;3.00;1.05;;;;;;;;;;5030733;28;20033;-67
2022/02/15 10:46:39;;;;;;;3.85;1.08;;;;;;;;;;5033136;28;20030;-68
2022/02/15 10:49:04;;;;;;;2.22;1.15;;;;;;;;;;5029970;28;20040;-68
2022/02/15 10:51:29;;;;;;;2.03;0.82;;;;;;;;;;5030270;28;20021;-67
2022/02/15 10:53:55;;;;;;;2.95;1.10;;;;;;;;;;5017666;28;20517;-68
2022/02/15 10:56:20;;;;;;;3.47;0.73;;;;;;;;;;5032884;28;20049;-67
2022/02/15 10:58:46;;;;;;;3.05;1.23;;;;;;;;;;5031901;28;20421;-68
2022/02/15 11:01:12;;;;;;;4.63;1.10;;;;;;;;;;5031617;28;20394;-68
2022/02/15 11:03:39;;;;;;;1.90;0.90;;;;;;;;;;5032173;28;20010;-67
2022/02/15 11:06:05;;;;;;;1.73;0.60;;;;;;;;;;5027286;28;20399;-68
2022/02/15 11:08:31;;;;;;;2.92;0.73;;;;;;;;;;5024750;28;20026;-68
2022/02/15 11:11:10;;;;;;;1.52;0.65;;;;;;;;;;5041217;28;20108;-68
2022/02/15 11:13:36;;;;;;;2.05;1.05;;;;;;;;;;5025392;28;20025;-68
2022/02/15 11:16:09;;;;;;;2.13;0.70;;;;;;;;;;5032214;28;20025;-68
2022/02/15 11:18:37;;;;;;;1.27;0.80;;;;;;;;;;5029575;28;20505;-69
2022/02/15 11:21:03;;;;;;;3.20;1.00;;;;;;;;;;5033798;28;20033;-68
2022/02/15 11:23:31;;;;;;;3.13;0.80;;;;;;;;;;5014344;28;20482;-68
2022/02/15 11:26:06;;;;;;;3.50;1.02;;;;;;;;;;5027639;28;20084;-68
2022/02/15 11:28:32;;;;;;;2.25;0.88;;;;;;;;;;5037098;28;20049;-68
2022/02/15 11:31:00;;;;;;;2.38;1.00;;;;;;;;;;5024939;28;20087;-68
2022/02/15 11:33:35;;;;;;;2.65;0.85;;;;;;;;;;5029690;28;20017;-68
2022/02/15 11:36:05;;;;;;;3.38;1.05;;;;;;;;;;5033631;28;20044;-68
2022/02/15 11:38:31;;;;;;;1.67;0.90;;;;;;;;;;5030702;28;20084;-68
2022/02/15 11:40:57;;;;;;;2.05;0.70;;;;;;;;;;5028849;28;20037;-68
2022/02/15 11:43:22;;;;;;;2.58;1.27;;;;;;;;;;5051673;28;20017;-68
2022/02/15 11:45:48;;;;;;;3.05;0.80;;;;;;;;;;5043224;28;20074;-68
2022/02/15 11:48:13;;;;;;;3.00;0.90;;;;;;;;;;5025526;28;20024;-68
2022/02/15 11:50:42;;;;;;;3.78;1.05;;;;;;;;;;5023136;28;20038;-68
2022/02/15 11:53:07;;;;;;;2.42;0.55;;;;;;;;;;5014344;28;20018;-68
2022/02/15 11:55:34;;;;;;;1.55;0.40;;;;;;;;;;5023232;28;20564;-70
2022/02/15 11:57:59;;;;;;;2.72;0.60;;;;;;;;;;5018780;28;20025;-69
2022/02/15 12:00:31;;;;;;;3.83;1.00;;;;;;;;;;5033624;28;21825;-70
2022/02/15 12:02:56;;;;;;;2.40;0.93;;;;;;;;;;5031552;28;20108;-68
2022/02/15 12:05:28;;;;;;;1.45;0.80;;;;;;;;;;5028453;28;20167;-68
2022/02/15 12:07:54;;;;;;;3.72;0.82;;;;;;;;;;5026630;28;20523;-68
2022/02/15 12:10:19;;;;;;;1.65;0.47;;;;;;;;;;5060555;28;20082;-68
2022/02/15 12:12:47;;;;;;;1.45;0.55;;;;;;;;;;5035003;28;20034;-68
2022/02/15 12:15:12;;;;;;;2.55;0.70;;;;;;;;;;5030613;28;20087;-68
2022/02/15 12:17:42;;;;;;;3.78;0.70;;;;;;;;;;5024305;28;20497;-68
2022/02/15 12:20:08;;;;;;;2.50;0.70;;;;;;;;;;5029383;28;20467;-68
2022/02/15 12:22:37;;;;;;;4.80;0.57;;;;;;;;;;5021783;28;20022;-68
2022/02/15 12:25:03;;;;;;;2.72;0.68;;;;;;;;;;5025987;28;20053;-68
2022/02/15 12:27:28;;;;;;;3.05;0.70;;;;;;;;;;5031568;28;20061;-68
2022/02/15 12:29:56;;;;;;;2.25;0.98;;;;;;;;;;5023925;28;20068;-68
2022/02/15 12:32:23;;;;;;;2.17;0.68;;;;;;;;;;5034661;28;20048;-69
2022/02/15 12:34:48;;;;;;;1.75;0.88;;;;;;;;;;5037337;28;20544;-69
2022/02/15 12:37:21;;;;;;;2.10;0.40;;;;;;;;;;5038150;28;20013;-68
2022/02/15 12:39:50;;;;;;;1.40;0.40;;;;;;;;;;5024927;28;20044;-68
2022/02/15 12:42:17;;;;;;;1.85;0.40;;;;;;;;;;5035200;28;20096;-69
2022/02/15 12:44:53;;;;;;;3.15;0.47;;;;;;;;;;5034442;28;20447;-68
2022/02/15 12:47:18;;;;;;;5.35;1.05;;;;;;;;;;5035183;28;20017;-67
2022/02/15 12:49:43;;;;;;;3.20;0.95;;;;;;;;;;5028340;28;20088;-69
2022/02/15 12:52:10;;;;;;;1.73;0.80;;;;;;;;;;5017576;28;20494;-68
2022/02/15 12:54:37;;;;;;;2.95;1.00;;;;;;;;;;5017870;28;20570;-68
2022/02/15 12:57:02;;;;;;;2.72;0.90;;;;;;;;;;5034618;28;20111;-68
2022/02/15 12:59:29;;;;;;;2.63;0.70;;;;;;;;;;5039418;28;20552;-68
2022/02/15 13:01:58;;;;;;;3.15;0.98;;;;;;;;;;5029504;28;20053;-67
2022/02/15 13:04:23;;;;;;;2.80;0.65;;;;;;;;;;5048158;28;20021;-67
2022/02/15 13:06:51;;;;;;;2.35;0.70;;;;;;;;;;5034442;28;20025;-67
2022/02/15 13:09:16;;;;;;;1.65;0.52;;;;;;;;;;5033705;28;20109;-68
2022/02/15 13:11:43;;;;;;;2.25;0.50;;;;;;;;;;5036199;28;20108;-68
2022/02/15 13:14:08;;;;;;;1.90;0.40;;;;;;;;;;5036358;28;20546;-67
2022/02/15 13:16:56;;;;;;;1.38;0.57;;;;;;;;;;5033389;28;20119;-68
2022/02/15 13:19:31;;;;;;;1.02;0.55;;;;;;;;;;5036651;28;20026;-67
2022/02/15 13:21:56;;;;;;;1.13;0.70;;;;;;;;;;5037086;28;20559;-69
2022/02/15 13:24:22;;;;;;;1.15;0.40;;;;;;;;;;5025405;28;20380;-68
2022/02/15 13:26:47;;;;;;;1.10;0.60;;;;;;;;;;5029588;28;20048;-68
2022/02/15 13:29:25;;;;;;;1.15;0.70;;;;;;;;;;5029034;28;20152;-68
2022/02/15 13:31:51;;;;;;;1.75;0.80;;;;;;;;;;5041167;28;20373;-68
2022/02/15 13:34:37;;;;;;;2.67;0.75;;;;;;;;;;5013368;28;20037;-69
2022/02/15 13:37:02;;;;;;;;;;;;;;;;;;5029359;28;20036;-69
2022/02/15 13:39:27;;;;;;;1.55;0.68;;;;;;;;;;5028799;28;19906;-69
2022/02/15 13:41:52;;;;;;;3.67;0.70;;;;;;;;;;5035352;28;20041;-67
2022/02/15 13:44:19;;;;;;;1.75;0.60;;;;;;;;;;5033015;28;20040;-68
2022/02/15 13:46:44;;;;;;;1.98;0.63;;;;;;;;;;5033030;28;20024;-68
2022/02/15 13:49:10;;;;;;;1.27;0.80;;;;;;;;;;5033615;28;20088;-68
2022/02/15 13:51:35;;;;;;;1.73;0.40;;;;;;;;;;5028741;28;20033;-68
2022/02/15 13:54:01;;;;;;;1.98;0.60;;;;;;;;;;5022179;28;20025;-69
2022/02/15 13:56:27;;;;;;;2.53;0.45;;;;;;;;;;5014565;28;20058;-69
2022/02/15 13:58:52;;;;;;;1.02;0.43;;;;;;;;;;5032632;28;20022;-66
2022/02/15 14:01:17;;;;;;;0.80;0.47;;;;;;;;;;5034944;28;20025;-67
2022/02/15 14:03:43;;;;;;;1.48;0.50;;;;;;;;;;5034809;28;20353;-67
2022/02/15 14:06:09;;;;;;;0.70;0.40;;;;;;;;;;5034232;28;20470;-67
2022/02/15 14:08:34;;;;;;;1.08;0.30;;;;;;;;;;5027357;28;20032;-69
2022/02/15 14:10:59;;;;;;;1.23;0.30;;;;;;;;;;5013515;28;20037;-67
2022/02/15 14:13:24;;;;;;;0.90;0.50;;;;;;;;;;5019085;28;20025;-68
2022/02/15 14:15:49;;;;;;;0.95;0.40;;;;;;;;;;5034283;28;20025;-68
2022/02/15 14:18:15;;;;;;;1.00;0.55;;;;;;;;;;5013476;28;20022;-68
2022/02/15 14:20:40;;;;;;;1.88;0.55;;;;;;;;;;5018029;28;20075;-67
2022/02/15 14:23:05;;;;;;;1.48;0.50;;;;;;;;;;5031678;28;20026;-68
2022/02/15 14:25:30;;;;;;;1.88;0.63;;;;;;;;;;5029733;28;20512;-67
2022/02/15 14:27:58;;;;;;;1.17;0.50;;;;;;;;;;5016905;28;20038;-67
2022/02/15 14:30:24;;;;;;;1.33;0.70;;;;;;;;;;5021954;28;20080;-67
2022/02/15 14:32:49;;;;;;;1.88;0.60;;;;;;;;;;5027537;28;20025;-68
2022/02/15 14:35:15;;;;;;;2.58;0.70;;;;;;;;;;5027646;28;20103;-69
2022/02/15 14:37:41;;;;;;;1.58;0.90;;;;;;;;;;5030897;28;20056;-68